sensor_id;sensor_type;location;lat;lon;timestamp;temperature;humidity
36424;DHT22;22458;45.328;9.514;2022-08-19T00:01:48;23.30;89.90
36424;DHT22;22458;45.328;9.514;2022-08-19T00:04:16;23.40;89.50
36424;DHT22;22458;45.328;9.514;2022-08-19T00:06:44;23.40;89.20
36424;DHT22;22458;45.328;9.514;2022-08-19T00:09:14;23.50;89.10
36424;DHT22;22458;45.328;9.514;2022-08-19T00:11:41;23.60;89.00
36424;DHT22;22458;45.328;9.514;2022-08-19T00:14:08;23.60;88.90
36424;DHT22;22458;45.328;9.514;2022-08-19T00:16:37;23.70;88.80
36424;DHT22;22458;45.328;9.514;2022-08-19T00:19:04;23.70;88.80
36424;DHT22;22458;45.328;9.514;2022-08-19T00:21:30;23.70;88.80
36424;DHT22;22458;45.328;9.514;2022-08-19T00:23:56;23.70;88.70
36424;DHT22;22458;45.328;9.514;2022-08-19T00:26:28;23.70;88.60
36424;DHT22;22458;45.328;9.514;2022-08-19T00:28:54;23.70;88.60
36424;DHT22;22458;45.328;9.514;2022-08-19T00:31:21;23.60;88.60
36424;DHT22;22458;45.328;9.514;2022-08-19T00:33:47;23.70;88.50
36424;DHT22;22458;45.328;9.514;2022-08-19T00:36:16;23.60;88.30
36424;DHT22;22458;45.328;9.514;2022-08-19T00:38:42;23.70;88.30
36424;DHT22;22458;45.328;9.514;2022-08-19T00:41:10;23.60;88.50
36424;DHT22;22458;45.328;9.514;2022-08-19T00:43:37;23.50;88.80
36424;DHT22;22458;45.328;9.514;2022-08-19T00:46:04;23.30;89.30
36424;DHT22;22458;45.328;9.514;2022-08-19T00:48:32;23.30;89.50
36424;DHT22;22458;45.328;9.514;2022-08-19T00:50:58;23.40;89.40
36424;DHT22;22458;45.328;9.514;2022-08-19T00:53:27;23.40;89.30
36424;DHT22;22458;45.328;9.514;2022-08-19T00:55:56;23.40;89.00
36424;DHT22;22458;45.328;9.514;2022-08-19T00:58:27;23.50;89.00
36424;DHT22;22458;45.328;9.514;2022-08-19T01:00:54;23.40;89.10
36424;DHT22;22458;45.328;9.514;2022-08-19T01:03:23;23.30;89.40
36424;DHT22;22458;45.328;9.514;2022-08-19T01:05:50;23.30;89.40
36424;DHT22;22458;45.328;9.514;2022-08-19T01:08:18;23.40;89.40
36424;DHT22;22458;45.328;9.514;2022-08-19T01:10:56;23.30;89.30
36424;DHT22;22458;45.328;9.514;2022-08-19T01:13:25;23.20;89.40
36424;DHT22;22458;45.328;9.514;2022-08-19T01:16:05;23.10;89.70
36424;DHT22;22458;45.328;9.514;2022-08-19T01:18:32;23.10;89.50
36424;DHT22;22458;45.328;9.514;2022-08-19T01:21:07;23.10;89.50
36424;DHT22;22458;45.328;9.514;2022-08-19T01:23:33;23.20;89.40
36424;DHT22;22458;45.328;9.514;2022-08-19T01:26:15;23.20;89.20
36424;DHT22;22458;45.328;9.514;2022-08-19T01:28:42;23.20;89.10
36424;DHT22;22458;45.328;9.514;2022-08-19T01:31:13;23.20;89.10
36424;DHT22;22458;45.328;9.514;2022-08-19T01:33:39;23.20;89.20
36424;DHT22;22458;45.328;9.514;2022-08-19T01:36:09;23.10;89.50
36424;DHT22;22458;45.328;9.514;2022-08-19T01:38:37;23.20;89.60
36424;DHT22;22458;45.328;9.514;2022-08-19T01:41:04;23.20;89.60
36424;DHT22;22458;45.328;9.514;2022-08-19T01:43:30;23.20;89.50
36424;DHT22;22458;45.328;9.514;2022-08-19T01:45:55;23.20;89.60
36424;DHT22;22458;45.328;9.514;2022-08-19T01:48:21;23.00;89.90
36424;DHT22;22458;45.328;9.514;2022-08-19T01:50:48;23.00;90.20
36424;DHT22;22458;45.328;9.514;2022-08-19T01:53:16;23.00;90.20
36424;DHT22;22458;45.328;9.514;2022-08-19T01:55:43;23.10;90.20
36424;DHT22;22458;45.328;9.514;2022-08-19T01:58:16;23.20;90.10
36424;DHT22;22458;45.328;9.514;2022-08-19T02:00:43;23.20;90.00
36424;DHT22;22458;45.328;9.514;2022-08-19T02:03:09;23.30;90.00
36424;DHT22;22458;45.328;9.514;2022-08-19T02:05:37;23.30;90.00
36424;DHT22;22458;45.328;9.514;2022-08-19T02:08:03;23.40;90.00
36424;DHT22;22458;45.328;9.514;2022-08-19T02:10:29;23.40;89.70
36424;DHT22;22458;45.328;9.514;2022-08-19T02:12:54;23.40;89.70
36424;DHT22;22458;45.328;9.514;2022-08-19T02:15:20;23.40;89.80
36424;DHT22;22458;45.328;9.514;2022-08-19T02:17:47;23.40;90.00
36424;DHT22;22458;45.328;9.514;2022-08-19T02:20:14;23.40;90.00
36424;DHT22;22458;45.328;9.514;2022-08-19T02:22:41;23.50;89.80
36424;DHT22;22458;45.328;9.514;2022-08-19T02:25:09;23.50;89.60
36424;DHT22;22458;45.328;9.514;2022-08-19T02:27:35;23.40;89.60
36424;DHT22;22458;45.328;9.514;2022-08-19T02:30:03;23.20;90.20
36424;DHT22;22458;45.328;9.514;2022-08-19T02:32:29;23.00;90.50
36424;DHT22;22458;45.328;9.514;2022-08-19T02:34:56;23.00;90.50
36424;DHT22;22458;45.328;9.514;2022-08-19T02:37:21;23.10;90.50
36424;DHT22;22458;45.328;9.514;2022-08-19T02:40:06;23.00;90.50
36424;DHT22;22458;45.328;9.514;2022-08-19T02:42:32;23.00;90.60
36424;DHT22;22458;45.328;9.514;2022-08-19T02:44:58;22.90;90.70
36424;DHT22;22458;45.328;9.514;2022-08-19T02:47:23;22.90;90.80
36424;DHT22;22458;45.328;9.514;2022-08-19T02:49:49;23.00;90.70
36424;DHT22;22458;45.328;9.514;2022-08-19T02:52:16;23.00;90.70
36424;DHT22;22458;45.328;9.514;2022-08-19T02:54:41;22.90;90.80
36424;DHT22;22458;45.328;9.514;2022-08-19T02:57:07;23.00;90.80
36424;DHT22;22458;45.328;9.514;2022-08-19T02:59:33;23.10;90.80
36424;DHT22;22458;45.328;9.514;2022-08-19T03:01:59;23.20;90.70
36424;DHT22;22458;45.328;9.514;2022-08-19T03:04:25;23.20;90.60
36424;DHT22;22458;45.328;9.514;2022-08-19T03:06:51;23.20;90.70
36424;DHT22;22458;45.328;9.514;2022-08-19T03:09:19;23.20;90.70
36424;DHT22;22458;45.328;9.514;2022-08-19T03:11:45;23.20;90.70
36424;DHT22;22458;45.328;9.514;2022-08-19T03:14:11;23.40;90.60
36424;DHT22;22458;45.328;9.514;2022-08-19T03:16:47;23.40;90.50
36424;DHT22;22458;45.328;9.514;2022-08-19T03:19:16;23.40;90.50
36424;DHT22;22458;45.328;9.514;2022-08-19T03:21:43;23.40;90.60
36424;DHT22;22458;45.328;9.514;2022-08-19T03:24:13;23.40;90.60
36424;DHT22;22458;45.328;9.514;2022-08-19T03:26:44;23.50;90.60
36424;DHT22;22458;45.328;9.514;2022-08-19T03:29:10;23.60;90.50
36424;DHT22;22458;45.328;9.514;2022-08-19T03:31:38;23.60;90.40
36424;DHT22;22458;45.328;9.514;2022-08-19T03:34:04;23.40;90.60
36424;DHT22;22458;45.328;9.514;2022-08-19T03:36:30;23.40;90.70
36424;DHT22;22458;45.328;9.514;2022-08-19T03:38:58;23.40;90.70
36424;DHT22;22458;45.328;9.514;2022-08-19T03:41:29;23.50;90.60
36424;DHT22;22458;45.328;9.514;2022-08-19T03:43:55;23.60;90.60
36424;DHT22;22458;45.328;9.514;2022-08-19T03:46:24;23.60;90.60
36424;DHT22;22458;45.328;9.514;2022-08-19T03:48:51;23.70;90.60
36424;DHT22;22458;45.328;9.514;2022-08-19T03:51:28;23.50;90.50
36424;DHT22;22458;45.328;9.514;2022-08-19T03:53:55;23.40;90.70
36424;DHT22;22458;45.328;9.514;2022-08-19T03:56:21;23.40;90.70
36424;DHT22;22458;45.328;9.514;2022-08-19T03:58:47;23.40;90.60
36424;DHT22;22458;45.328;9.514;2022-08-19T04:01:19;23.40;90.60
36424;DHT22;22458;45.328;9.514;2022-08-19T04:03:46;23.40;90.60
36424;DHT22;22458;45.328;9.514;2022-08-19T04:06:13;23.40;90.60
36424;DHT22;22458;45.328;9.514;2022-08-19T04:08:40;23.40;90.50
36424;DHT22;22458;45.328;9.514;2022-08-19T04:11:08;23.40;90.50
36424;DHT22;22458;45.328;9.514;2022-08-19T04:13:34;23.30;90.50
36424;DHT22;22458;45.328;9.514;2022-08-19T04:16:00;23.30;90.40
36424;DHT22;22458;45.328;9.514;2022-08-19T04:18:26;23.40;90.30
36424;DHT22;22458;45.328;9.514;2022-08-19T04:20:52;23.50;90.20
36424;DHT22;22458;45.328;9.514;2022-08-19T04:23:17;23.60;90.10
36424;DHT22;22458;45.328;9.514;2022-08-19T04:25:44;23.60;90.00
36424;DHT22;22458;45.328;9.514;2022-08-19T04:28:12;23.70;90.00
36424;DHT22;22458;45.328;9.514;2022-08-19T04:30:47;23.70;90.00
36424;DHT22;22458;45.328;9.514;2022-08-19T04:33:15;23.70;90.00
36424;DHT22;22458;45.328;9.514;2022-08-19T04:35:47;23.70;90.10
36424;DHT22;22458;45.328;9.514;2022-08-19T04:38:15;23.60;90.10
36424;DHT22;22458;45.328;9.514;2022-08-19T04:40:43;23.60;90.20
36424;DHT22;22458;45.328;9.514;2022-08-19T04:43:28;23.60;90.20
36424;DHT22;22458;45.328;9.514;2022-08-19T04:45:54;23.60;90.20
36424;DHT22;22458;45.328;9.514;2022-08-19T04:48:20;23.60;90.30
36424;DHT22;22458;45.328;9.514;2022-08-19T04:50:55;23.60;90.40
36424;DHT22;22458;45.328;9.514;2022-08-19T04:53:26;23.50;90.40
36424;DHT22;22458;45.328;9.514;2022-08-19T04:55:58;23.40;90.50
36424;DHT22;22458;45.328;9.514;2022-08-19T04:58:26;23.40;90.60
36424;DHT22;22458;45.328;9.514;2022-08-19T05:00:53;23.40;90.60
36424;DHT22;22458;45.328;9.514;2022-08-19T05:03:19;23.40;90.60
36424;DHT22;22458;45.328;9.514;2022-08-19T05:05:47;23.40;90.60
36424;DHT22;22458;45.328;9.514;2022-08-19T05:08:19;23.40;90.60
36424;DHT22;22458;45.328;9.514;2022-08-19T05:10:50;23.40;90.60
36424;DHT22;22458;45.328;9.514;2022-08-19T05:13:18;23.50;90.60
36424;DHT22;22458;45.328;9.514;2022-08-19T05:15:45;23.50;90.60
36424;DHT22;22458;45.328;9.514;2022-08-19T05:18:18;23.50;90.60
36424;DHT22;22458;45.328;9.514;2022-08-19T05:21:08;23.60;90.70
36424;DHT22;22458;45.328;9.514;2022-08-19T05:23:52;23.60;90.70
36424;DHT22;22458;45.328;9.514;2022-08-19T05:26:18;23.60;90.70
36424;DHT22;22458;45.328;9.514;2022-08-19T05:28:44;23.60;90.60
36424;DHT22;22458;45.328;9.514;2022-08-19T05:31:10;23.60;90.60
36424;DHT22;22458;45.328;9.514;2022-08-19T05:33:35;23.60;90.70
36424;DHT22;22458;45.328;9.514;2022-08-19T05:36:02;23.60;90.70
36424;DHT22;22458;45.328;9.514;2022-08-19T05:38:28;23.60;90.70
36424;DHT22;22458;45.328;9.514;2022-08-19T05:40:55;23.60;90.80
36424;DHT22;22458;45.328;9.514;2022-08-19T05:43:21;23.50;90.80
36424;DHT22;22458;45.328;9.514;2022-08-19T05:45:47;23.50;90.80
36424;DHT22;22458;45.328;9.514;2022-08-19T05:48:13;23.50;90.80
36424;DHT22;22458;45.328;9.514;2022-08-19T05:50:40;23.50;90.90
36424;DHT22;22458;45.328;9.514;2022-08-19T05:53:06;23.60;90.90
36424;DHT22;22458;45.328;9.514;2022-08-19T05:55:34;23.60;90.80
36424;DHT22;22458;45.328;9.514;2022-08-19T05:58:00;23.60;90.90
36424;DHT22;22458;45.328;9.514;2022-08-19T06:00:27;23.60;90.90
36424;DHT22;22458;45.328;9.514;2022-08-19T06:02:55;23.60;90.90
36424;DHT22;22458;45.328;9.514;2022-08-19T06:05:31;23.60;90.90
36424;DHT22;22458;45.328;9.514;2022-08-19T06:07:57;23.50;91.00
36424;DHT22;22458;45.328;9.514;2022-08-19T06:10:25;23.40;90.90
36424;DHT22;22458;45.328;9.514;2022-08-19T06:12:52;23.30;91.10
36424;DHT22;22458;45.328;9.514;2022-08-19T06:15:18;23.40;91.20
36424;DHT22;22458;45.328;9.514;2022-08-19T06:17:43;23.40;91.20
36424;DHT22;22458;45.328;9.514;2022-08-19T06:20:12;23.40;91.20
36424;DHT22;22458;45.328;9.514;2022-08-19T06:22:39;23.50;91.20
36424;DHT22;22458;45.328;9.514;2022-08-19T06:25:06;23.50;91.10
36424;DHT22;22458;45.328;9.514;2022-08-19T06:27:32;23.40;91.20
36424;DHT22;22458;45.328;9.514;2022-08-19T06:29:59;23.40;91.30
36424;DHT22;22458;45.328;9.514;2022-08-19T06:32:24;23.40;91.20
36424;DHT22;22458;45.328;9.514;2022-08-19T06:34:50;23.50;91.30
36424;DHT22;22458;45.328;9.514;2022-08-19T06:37:16;23.40;91.40
36424;DHT22;22458;45.328;9.514;2022-08-19T06:39:43;23.30;91.70
36424;DHT22;22458;45.328;9.514;2022-08-19T06:42:11;23.20;91.80
36424;DHT22;22458;45.328;9.514;2022-08-19T06:44:41;23.30;91.70
36424;DHT22;22458;45.328;9.514;2022-08-19T06:47:08;23.40;91.60
36424;DHT22;22458;45.328;9.514;2022-08-19T06:49:34;23.40;91.70
36424;DHT22;22458;45.328;9.514;2022-08-19T06:52:01;23.40;91.70
36424;DHT22;22458;45.328;9.514;2022-08-19T06:54:27;23.40;91.70
36424;DHT22;22458;45.328;9.514;2022-08-19T06:56:55;23.40;91.80
36424;DHT22;22458;45.328;9.514;2022-08-19T06:59:24;23.50;91.70
36424;DHT22;22458;45.328;9.514;2022-08-19T07:01:54;23.60;91.70
36424;DHT22;22458;45.328;9.514;2022-08-19T07:04:25;23.70;91.70
36424;DHT22;22458;45.328;9.514;2022-08-19T07:07:02;23.70;91.50
36424;DHT22;22458;45.328;9.514;2022-08-19T07:09:28;23.90;91.70
36424;DHT22;22458;45.328;9.514;2022-08-19T07:11:55;23.90;91.40
36424;DHT22;22458;45.328;9.514;2022-08-19T07:14:24;24.00;91.30
36424;DHT22;22458;45.328;9.514;2022-08-19T07:16:52;24.00;91.20
36424;DHT22;22458;45.328;9.514;2022-08-19T07:19:21;24.00;91.10
36424;DHT22;22458;45.328;9.514;2022-08-19T07:21:49;24.10;91.00
36424;DHT22;22458;45.328;9.514;2022-08-19T07:24:19;24.10;90.80
36424;DHT22;22458;45.328;9.514;2022-08-19T07:26:46;24.20;90.70
36424;DHT22;22458;45.328;9.514;2022-08-19T07:29:12;24.20;90.60
36424;DHT22;22458;45.328;9.514;2022-08-19T07:31:38;24.20;90.50
36424;DHT22;22458;45.328;9.514;2022-08-19T07:34:06;24.30;90.40
36424;DHT22;22458;45.328;9.514;2022-08-19T07:36:34;24.30;90.20
36424;DHT22;22458;45.328;9.514;2022-08-19T07:39:05;24.20;90.00
36424;DHT22;22458;45.328;9.514;2022-08-19T07:41:31;24.30;89.90
36424;DHT22;22458;45.328;9.514;2022-08-19T07:44:00;24.30;89.50
36424;DHT22;22458;45.328;9.514;2022-08-19T07:46:34;24.30;88.90
36424;DHT22;22458;45.328;9.514;2022-08-19T07:49:01;24.30;88.50
36424;DHT22;22458;45.328;9.514;2022-08-19T07:51:28;24.30;88.10
36424;DHT22;22458;45.328;9.514;2022-08-19T07:53:54;24.30;87.60
36424;DHT22;22458;45.328;9.514;2022-08-19T07:56:20;24.30;87.10
36424;DHT22;22458;45.328;9.514;2022-08-19T07:58:48;24.30;87.20
36424;DHT22;22458;45.328;9.514;2022-08-19T08:01:20;24.30;87.40
36424;DHT22;22458;45.328;9.514;2022-08-19T08:03:47;24.20;87.80
36424;DHT22;22458;45.328;9.514;2022-08-19T08:06:32;24.10;88.00
36424;DHT22;22458;45.328;9.514;2022-08-19T08:09:20;24.00;88.40
36424;DHT22;22458;45.328;9.514;2022-08-19T08:11:54;23.90;88.70
36424;DHT22;22458;45.328;9.514;2022-08-19T08:14:25;23.90;89.00
36424;DHT22;22458;45.328;9.514;2022-08-19T08:16:52;23.90;89.50
36424;DHT22;22458;45.328;9.514;2022-08-19T08:19:20;23.80;89.80
36424;DHT22;22458;45.328;9.514;2022-08-19T08:21:47;23.80;90.00
36424;DHT22;22458;45.328;9.514;2022-08-19T08:24:13;23.80;90.00
36424;DHT22;22458;45.328;9.514;2022-08-19T08:26:40;23.80;90.00
36424;DHT22;22458;45.328;9.514;2022-08-19T08:29:06;23.80;90.10
36424;DHT22;22458;45.328;9.514;2022-08-19T08:31:37;23.80;90.20
36424;DHT22;22458;45.328;9.514;2022-08-19T08:34:03;23.80;90.20
36424;DHT22;22458;45.328;9.514;2022-08-19T08:36:29;23.70;90.20
36424;DHT22;22458;45.328;9.514;2022-08-19T08:38:59;23.70;90.40
36424;DHT22;22458;45.328;9.514;2022-08-19T08:41:37;23.70;90.40
36424;DHT22;22458;45.328;9.514;2022-08-19T08:44:06;23.70;90.40
36424;DHT22;22458;45.328;9.514;2022-08-19T08:46:45;23.70;90.40
36424;DHT22;22458;45.328;9.514;2022-08-19T08:52:06;23.70;90.60
36424;DHT22;22458;45.328;9.514;2022-08-19T08:54:43;23.70;90.70
36424;DHT22;22458;45.328;9.514;2022-08-19T08:57:15;23.80;90.70
36424;DHT22;22458;45.328;9.514;2022-08-19T08:59:46;23.90;90.50
36424;DHT22;22458;45.328;9.514;2022-08-19T09:02:16;23.90;90.50
36424;DHT22;22458;45.328;9.514;2022-08-19T09:04:42;23.90;90.80
36424;DHT22;22458;45.328;9.514;2022-08-19T09:10:10;24.00;90.10
36424;DHT22;22458;45.328;9.514;2022-08-19T09:15:28;24.00;90.10
36424;DHT22;22458;45.328;9.514;2022-08-19T09:17:54;24.00;90.20
36424;DHT22;22458;45.328;9.514;2022-08-19T09:20:23;24.00;90.20
36424;DHT22;22458;45.328;9.514;2022-08-19T09:22:49;24.10;90.10
36424;DHT22;22458;45.328;9.514;2022-08-19T09:25:18;24.00;90.10
36424;DHT22;22458;45.328;9.514;2022-08-19T09:27:45;24.00;90.00
36424;DHT22;22458;45.328;9.514;2022-08-19T09:30:21;24.00;89.90
36424;DHT22;22458;45.328;9.514;2022-08-19T09:32:47;24.00;89.50
36424;DHT22;22458;45.328;9.514;2022-08-19T09:35:14;24.00;89.50
36424;DHT22;22458;45.328;9.514;2022-08-19T09:37:41;23.90;88.90
36424;DHT22;22458;45.328;9.514;2022-08-19T09:40:08;23.90;88.50
36424;DHT22;22458;45.328;9.514;2022-08-19T09:42:35;23.90;88.50
36424;DHT22;22458;45.328;9.514;2022-08-19T09:45:00;23.90;88.70
36424;DHT22;22458;45.328;9.514;2022-08-19T09:47:26;24.10;88.80
36424;DHT22;22458;45.328;9.514;2022-08-19T09:49:52;24.10;88.70
36424;DHT22;22458;45.328;9.514;2022-08-19T09:52:18;24.20;89.30
36424;DHT22;22458;45.328;9.514;2022-08-19T09:54:44;24.30;88.80
36424;DHT22;22458;45.328;9.514;2022-08-19T09:57:09;24.30;88.70
36424;DHT22;22458;45.328;9.514;2022-08-19T09:59:35;24.40;88.80
36424;DHT22;22458;45.328;9.514;2022-08-19T10:02:01;24.50;88.60
36424;DHT22;22458;45.328;9.514;2022-08-19T10:04:27;24.60;88.40
36424;DHT22;22458;45.328;9.514;2022-08-19T10:07:12;24.70;88.30
36424;DHT22;22458;45.328;9.514;2022-08-19T10:09:39;24.70;87.40
36424;DHT22;22458;45.328;9.514;2022-08-19T10:12:06;24.80;87.00
36424;DHT22;22458;45.328;9.514;2022-08-19T10:14:33;24.90;86.50
36424;DHT22;22458;45.328;9.514;2022-08-19T10:16:59;25.00;86.00
36424;DHT22;22458;45.328;9.514;2022-08-19T10:19:26;25.10;84.70
36424;DHT22;22458;45.328;9.514;2022-08-19T10:21:57;25.10;84.10
36424;DHT22;22458;45.328;9.514;2022-08-19T10:24:23;25.30;84.30
36424;DHT22;22458;45.328;9.514;2022-08-19T10:26:51;25.40;84.60
36424;DHT22;22458;45.328;9.514;2022-08-19T10:29:16;25.50;84.60
36424;DHT22;22458;45.328;9.514;2022-08-19T10:31:43;25.60;84.10
36424;DHT22;22458;45.328;9.514;2022-08-19T10:34:08;25.70;83.40
36424;DHT22;22458;45.328;9.514;2022-08-19T10:36:36;25.70;83.00
36424;DHT22;22458;45.328;9.514;2022-08-19T10:39:07;25.90;81.80
36424;DHT22;22458;45.328;9.514;2022-08-19T10:41:36;25.90;80.90
36424;DHT22;22458;45.328;9.514;2022-08-19T10:44:11;26.00;80.40
36424;DHT22;22458;45.328;9.514;2022-08-19T10:46:41;26.10;79.90
36424;DHT22;22458;45.328;9.514;2022-08-19T10:49:08;26.20;79.40
36424;DHT22;22458;45.328;9.514;2022-08-19T10:51:35;26.20;78.50
36424;DHT22;22458;45.328;9.514;2022-08-19T10:54:20;26.30;78.30
36424;DHT22;22458;45.328;9.514;2022-08-19T10:56:46;26.40;77.60
36424;DHT22;22458;45.328;9.514;2022-08-19T10:59:23;26.50;77.20
36424;DHT22;22458;45.328;9.514;2022-08-19T11:01:50;26.60;76.50
36424;DHT22;22458;45.328;9.514;2022-08-19T11:04:18;26.60;76.20
36424;DHT22;22458;45.328;9.514;2022-08-19T11:06:46;26.60;76.00
36424;DHT22;22458;45.328;9.514;2022-08-19T11:09:17;26.70;76.10
36424;DHT22;22458;45.328;9.514;2022-08-19T11:11:44;26.70;75.90
36424;DHT22;22458;45.328;9.514;2022-08-19T11:14:12;26.60;75.60
36424;DHT22;22458;45.328;9.514;2022-08-19T11:16:40;26.60;75.80
36424;DHT22;22458;45.328;9.514;2022-08-19T11:19:07;26.60;76.00
36424;DHT22;22458;45.328;9.514;2022-08-19T11:21:42;26.60;76.00
36424;DHT22;22458;45.328;9.514;2022-08-19T11:24:22;26.60;75.60
36424;DHT22;22458;45.328;9.514;2022-08-19T11:26:51;26.50;75.30
36424;DHT22;22458;45.328;9.514;2022-08-19T11:29:20;26.50;75.40
36424;DHT22;22458;45.328;9.514;2022-08-19T11:31:48;26.50;75.50
36424;DHT22;22458;45.328;9.514;2022-08-19T11:34:24;26.40;75.50
36424;DHT22;22458;45.328;9.514;2022-08-19T11:36:51;26.50;75.50
36424;DHT22;22458;45.328;9.514;2022-08-19T11:39:19;26.50;75.60
36424;DHT22;22458;45.328;9.514;2022-08-19T11:41:46;26.50;75.40
36424;DHT22;22458;45.328;9.514;2022-08-19T11:44:11;26.50;75.20
36424;DHT22;22458;45.328;9.514;2022-08-19T11:46:40;26.50;74.80
36424;DHT22;22458;45.328;9.514;2022-08-19T11:49:06;26.60;74.50
36424;DHT22;22458;45.328;9.514;2022-08-19T11:51:33;26.70;73.90
36424;DHT22;22458;45.328;9.514;2022-08-19T11:54:00;26.70;73.30
36424;DHT22;22458;45.328;9.514;2022-08-19T11:56:26;26.70;73.30
36424;DHT22;22458;45.328;9.514;2022-08-19T11:58:53;26.70;73.10
36424;DHT22;22458;45.328;9.514;2022-08-19T12:01:21;26.80;73.00
36424;DHT22;22458;45.328;9.514;2022-08-19T12:03:49;26.90;72.70
36424;DHT22;22458;45.328;9.514;2022-08-19T12:06:18;27.00;72.80
36424;DHT22;22458;45.328;9.514;2022-08-19T12:08:45;26.90;72.10
36424;DHT22;22458;45.328;9.514;2022-08-19T12:11:13;26.90;72.10
36424;DHT22;22458;45.328;9.514;2022-08-19T12:13:39;26.90;71.70
36424;DHT22;22458;45.328;9.514;2022-08-19T12:16:15;26.80;71.30
36424;DHT22;22458;45.328;9.514;2022-08-19T12:18:42;26.80;71.70
36424;DHT22;22458;45.328;9.514;2022-08-19T12:21:25;26.70;71.20
36424;DHT22;22458;45.328;9.514;2022-08-19T12:23:53;26.70;71.50
36424;DHT22;22458;45.328;9.514;2022-08-19T12:26:20;26.70;71.20
36424;DHT22;22458;45.328;9.514;2022-08-19T12:28:46;26.70;70.80
36424;DHT22;22458;45.328;9.514;2022-08-19T12:31:14;26.70;70.80
36424;DHT22;22458;45.328;9.514;2022-08-19T12:33:41;26.70;70.40
36424;DHT22;22458;45.328;9.514;2022-08-19T12:36:09;26.70;70.00
36424;DHT22;22458;45.328;9.514;2022-08-19T12:38:37;26.70;70.00
36424;DHT22;22458;45.328;9.514;2022-08-19T12:41:03;26.70;70.00
36424;DHT22;22458;45.328;9.514;2022-08-19T12:43:33;26.70;69.90
36424;DHT22;22458;45.328;9.514;2022-08-19T12:46:00;26.80;69.90
36424;DHT22;22458;45.328;9.514;2022-08-19T12:48:26;26.90;69.50
36424;DHT22;22458;45.328;9.514;2022-08-19T12:50:54;27.10;69.60
36424;DHT22;22458;45.328;9.514;2022-08-19T12:53:20;27.20;69.60
36424;DHT22;22458;45.328;9.514;2022-08-19T12:55:46;27.40;69.50
36424;DHT22;22458;45.328;9.514;2022-08-19T12:58:12;27.60;69.70
36424;DHT22;22458;45.328;9.514;2022-08-19T13:00:38;27.70;69.50
36424;DHT22;22458;45.328;9.514;2022-08-19T13:03:04;27.80;69.30
36424;DHT22;22458;45.328;9.514;2022-08-19T13:05:32;28.00;69.10
36424;DHT22;22458;45.328;9.514;2022-08-19T13:07:58;28.00;68.40
36424;DHT22;22458;45.328;9.514;2022-08-19T13:10:28;27.90;68.50
36424;DHT22;22458;45.328;9.514;2022-08-19T13:12:55;28.00;68.40
36424;DHT22;22458;45.328;9.514;2022-08-19T13:15:22;28.00;68.10
36424;DHT22;22458;45.328;9.514;2022-08-19T13:17:49;28.10;67.90
36424;DHT22;22458;45.328;9.514;2022-08-19T13:20:18;28.10;67.80
36424;DHT22;22458;45.328;9.514;2022-08-19T13:22:45;28.20;67.60
36424;DHT22;22458;45.328;9.514;2022-08-19T13:25:11;28.30;67.20
36424;DHT22;22458;45.328;9.514;2022-08-19T13:27:38;28.50;67.10
36424;DHT22;22458;45.328;9.514;2022-08-19T13:30:06;28.70;67.30
36424;DHT22;22458;45.328;9.514;2022-08-19T13:32:50;28.90;67.00
36424;DHT22;22458;45.328;9.514;2022-08-19T13:35:35;28.90;66.70
36424;DHT22;22458;45.328;9.514;2022-08-19T13:38:00;28.90;66.20
36424;DHT22;22458;45.328;9.514;2022-08-19T13:40:31;29.00;66.50
36424;DHT22;22458;45.328;9.514;2022-08-19T13:43:00;29.00;66.30
36424;DHT22;22458;45.328;9.514;2022-08-19T13:45:28;29.00;66.70
36424;DHT22;22458;45.328;9.514;2022-08-19T13:47:56;29.10;66.30
36424;DHT22;22458;45.328;9.514;2022-08-19T13:50:25;29.00;66.30
36424;DHT22;22458;45.328;9.514;2022-08-19T13:52:52;29.10;66.50
36424;DHT22;22458;45.328;9.514;2022-08-19T13:55:18;29.20;66.70
36424;DHT22;22458;45.328;9.514;2022-08-19T13:57:44;29.30;66.50
36424;DHT22;22458;45.328;9.514;2022-08-19T14:00:17;29.40;66.50
36424;DHT22;22458;45.328;9.514;2022-08-19T14:02:44;29.40;66.00
36424;DHT22;22458;45.328;9.514;2022-08-19T14:05:13;29.50;65.20
36424;DHT22;22458;45.328;9.514;2022-08-19T14:07:39;29.50;65.30
36424;DHT22;22458;45.328;9.514;2022-08-19T14:10:08;29.70;65.20
36424;DHT22;22458;45.328;9.514;2022-08-19T14:12:34;30.00;64.10
36424;DHT22;22458;45.328;9.514;2022-08-19T14:15:01;30.30;63.70
36424;DHT22;22458;45.328;9.514;2022-08-19T14:17:29;30.70;62.70
36424;DHT22;22458;45.328;9.514;2022-08-19T14:19:59;31.00;62.40
36424;DHT22;22458;45.328;9.514;2022-08-19T14:22:26;31.40;62.10
36424;DHT22;22458;45.328;9.514;2022-08-19T14:24:55;31.70;61.50
36424;DHT22;22458;45.328;9.514;2022-08-19T14:27:24;31.70;60.50
36424;DHT22;22458;45.328;9.514;2022-08-19T14:29:51;31.50;61.00
36424;DHT22;22458;45.328;9.514;2022-08-19T14:32:17;31.40;61.10
36424;DHT22;22458;45.328;9.514;2022-08-19T14:34:43;31.20;61.20
36424;DHT22;22458;45.328;9.514;2022-08-19T14:37:12;30.90;61.40
36424;DHT22;22458;45.328;9.514;2022-08-19T14:39:43;30.80;61.60
36424;DHT22;22458;45.328;9.514;2022-08-19T14:42:11;30.60;61.50
36424;DHT22;22458;45.328;9.514;2022-08-19T14:44:38;30.60;61.60
36424;DHT22;22458;45.328;9.514;2022-08-19T14:47:04;30.60;61.40
36424;DHT22;22458;45.328;9.514;2022-08-19T14:49:30;30.60;61.50
36424;DHT22;22458;45.328;9.514;2022-08-19T14:51:56;30.60;61.60
36424;DHT22;22458;45.328;9.514;2022-08-19T14:54:22;30.70;61.30
36424;DHT22;22458;45.328;9.514;2022-08-19T14:56:48;30.90;61.20
36424;DHT22;22458;45.328;9.514;2022-08-19T14:59:14;31.20;60.90
36424;DHT22;22458;45.328;9.514;2022-08-19T15:01:40;31.50;60.40
36424;DHT22;22458;45.328;9.514;2022-08-19T15:04:06;31.70;60.00
36424;DHT22;22458;45.328;9.514;2022-08-19T15:06:32;31.70;59.60
36424;DHT22;22458;45.328;9.514;2022-08-19T15:09:02;31.60;59.80
36424;DHT22;22458;45.328;9.514;2022-08-19T15:11:31;31.60;60.00
36424;DHT22;22458;45.328;9.514;2022-08-19T15:14:01;31.40;59.70
36424;DHT22;22458;45.328;9.514;2022-08-19T15:16:27;31.30;60.20
36424;DHT22;22458;45.328;9.514;2022-08-19T15:18:56;31.30;60.80
36424;DHT22;22458;45.328;9.514;2022-08-19T15:21:24;31.30;60.80
36424;DHT22;22458;45.328;9.514;2022-08-19T15:23:51;31.40;60.30
36424;DHT22;22458;45.328;9.514;2022-08-19T15:26:21;31.60;59.90
36424;DHT22;22458;45.328;9.514;2022-08-19T15:28:47;31.90;59.50
36424;DHT22;22458;45.328;9.514;2022-08-19T15:31:17;32.00;59.40
36424;DHT22;22458;45.328;9.514;2022-08-19T15:33:43;32.20;58.70
36424;DHT22;22458;45.328;9.514;2022-08-19T15:36:10;32.30;58.70
36424;DHT22;22458;45.328;9.514;2022-08-19T15:38:38;32.10;58.30
36424;DHT22;22458;45.328;9.514;2022-08-19T15:41:04;31.90;58.70
36424;DHT22;22458;45.328;9.514;2022-08-19T15:43:54;31.60;59.20
36424;DHT22;22458;45.328;9.514;2022-08-19T15:46:23;31.40;59.50